»·PEaware :: N25AV KSNA-L77

N25AV :: KSNA-L77

FLIGHT INFORMATION

Flight Status: Arrived
Operator: Privately registered:
United States
More flights under this callsign
Pilot: Andrea V. (11071)
Aircraft: CESSNA 172 SKYHAWK
(C172)
More flights by this aircraft type
Origin: KSNA John Wayne-Orange Co
United States
Destination: L77 Chiriaco Summit
United States
More flights between these airports :: More routes between these airports
Route: RYAHH V466 HENOM
File this flight plan on PilotEdge
Remarks:
Altitude:
(Current/Filed)
9,000ft
Speed:
(Current/Filed)
130kts
Departed: 04-Jul-17 06:45 AM
Arrived: 04-Jul-17 07:56 AM
Distance/Time
Traveled:
78nm/1:11
Distance/Time
To Go:
Arrived

Flight Plot

Page will automatically refresh every two minutes.

Flight plan parsing failed; only flown route is shown


Map Options




Map Legend


Flown Route
Filed Route
Departure Airport
Arrival Airport
Navaid (VOR, NDB)
Fix

Horizontal Profiles

Position Reports

Time Latitude Longitude Heading Altitude Ground
Speed
04-Jul-17 06:33 32.732144 -117.176901 194 28ft 0kts
04-Jul-17 06:34 32.732144 -117.176901 193 28ft 0kts
04-Jul-17 06:35 32.732144 -117.176901 193 28ft 0kts
04-Jul-17 06:36 32.732144 -117.176901 193 28ft 0kts
04-Jul-17 06:37 32.732144 -117.176901 193 28ft 0kts
04-Jul-17 06:38 32.732144 -117.176901 193 28ft 0kts
04-Jul-17 06:39 32.732144 -117.176901 193 28ft 0kts
04-Jul-17 06:40 32.732144 -117.176901 193 28ft 0kts
04-Jul-17 06:41 32.732144 -117.176901 194 28ft 0kts
04-Jul-17 06:42 32.732144 -117.176901 194 28ft 0kts
04-Jul-17 06:43 32.732144 -117.176901 194 28ft 0kts
04-Jul-17 06:44 32.732144 -117.176901 194 28ft 0kts
04-Jul-17 06:45 32.732144 -117.176901 194 28ft 0kts
04-Jul-17 06:46 32.732144 -117.176901 194 28ft 0kts
04-Jul-17 06:47 32.730640 -117.177082 281 21ft 15kts
04-Jul-17 06:48 32.736445 -117.198788 294 501ft 78kts
04-Jul-17 06:49 32.741883 -117.220841 275 1261ft 70kts
04-Jul-17 06:50 32.745665 -117.243828 284 1918ft 71kts
04-Jul-17 06:51 32.747168 -117.267065 232 2516ft 80kts
04-Jul-17 06:52 32.735203 -117.250993 91 3082ft 76kts
04-Jul-17 06:53 32.731099 -117.227316 90 3653ft 75kts
04-Jul-17 06:54 32.736819 -117.208887 325 4123ft 83kts
04-Jul-17 06:55 32.751825 -117.207021 50 4432ft 91kts
04-Jul-17 06:56 32.745906 -117.181326 114 4892ft 84kts
04-Jul-17 06:57 32.731438 -117.158466 94 5368ft 84kts
04-Jul-17 06:58 32.732396 -117.130306 94 5784ft 91kts
04-Jul-17 06:59 32.722876 -117.102269 120 6221ft 94kts
04-Jul-17 07:00 32.702401 -117.083180 141 6632ft 95kts
04-Jul-17 07:01 32.681245 -117.065140 138 7017ft 94kts
04-Jul-17 07:02 32.661240 -117.045759 134 7376ft 94kts
04-Jul-17 07:03 32.641007 -117.026734 125 7754ft 93kts
04-Jul-17 07:04 32.632631 -117.001683 46 8116ft 92kts
04-Jul-17 07:05 32.656838 -116.991783 39 8472ft 93kts
04-Jul-17 07:06 32.677554 -116.973685 38 8830ft 93kts
04-Jul-17 07:07 32.699228 -116.954564 39 8969ft 104kts
04-Jul-17 07:08 32.722801 -116.933347 38 8967ft 110kts
04-Jul-17 07:09 32.747339 -116.910962 38 8969ft 112kts
04-Jul-17 07:10 32.772257 -116.888360 38 8970ft 113kts
04-Jul-17 07:11 32.787352 -116.856832 68 8970ft 112kts
04-Jul-17 07:12 32.799046 -116.822289 68 8970ft 113kts
04-Jul-17 07:13 32.810767 -116.787667 68 8971ft 113kts
04-Jul-17 07:14 32.822496 -116.753022 68 8972ft 113kts
04-Jul-17 07:15 32.834199 -116.718459 68 8973ft 113kts
04-Jul-17 07:16 32.845958 -116.683756 68 8974ft 113kts
04-Jul-17 07:17 32.857742 -116.648986 68 8976ft 113kts
04-Jul-17 07:18 32.869470 -116.614361 68 8978ft 113kts
04-Jul-17 07:19 32.881220 -116.579676 68 8981ft 113kts
04-Jul-17 07:20 32.896001 -116.547568 41 8984ft 113kts
04-Jul-17 07:21 32.925089 -116.533792 13 8985ft 116kts
04-Jul-17 07:22 32.956674 -116.525891 13 8987ft 116kts
04-Jul-17 07:23 32.988321 -116.517995 13 8988ft 117kts
04-Jul-17 07:24 33.020014 -116.512110 338 8991ft 116kts
04-Jul-17 07:25 33.049261 -116.527716 329 8989ft 116kts
04-Jul-17 07:26 33.077736 -116.546124 329 8988ft 116kts
04-Jul-17 07:27 33.105521 -116.564353 329 8988ft 114kts
04-Jul-17 07:28 33.133868 -116.571478 39 8989ft 117kts
04-Jul-17 07:29 33.158095 -116.546062 38 8975ft 119kts
04-Jul-17 07:30 33.180939 -116.518021 50 8958ft 118kts
04-Jul-17 07:31 33.201072 -116.487323 49 8936ft 117kts
04-Jul-17 07:32 33.220788 -116.456100 51 8909ft 118kts
04-Jul-17 07:33 33.239989 -116.424506 51 8877ft 118kts
04-Jul-17 07:34 33.259074 -116.392482 52 8840ft 118kts
04-Jul-17 07:35 33.277968 -116.360456 52 8819ft 117kts
04-Jul-17 07:36 33.296591 -116.328670 53 8814ft 116kts
04-Jul-17 07:37 33.312130 -116.294697 60 8814ft 116kts
04-Jul-17 07:38 33.327033 -116.260346 60 8814ft 117kts
04-Jul-17 07:39 33.342020 -116.225802 60 8814ft 117kts
04-Jul-17 07:40 33.356535 -116.192250 60 8915ft 113kts
04-Jul-17 07:41 33.372571 -116.159492 50 8915ft 115kts
04-Jul-17 07:42 33.392620 -116.129239 48 8915ft 116kts
04-Jul-17 07:43 33.413058 -116.099331 48 8915ft 116kts
04-Jul-17 07:44 33.433524 -116.069385 48 8915ft 116kts
04-Jul-17 07:45 33.454037 -116.039369 48 8915ft 116kts
04-Jul-17 07:46 33.474518 -116.009395 48 8915ft 116kts
04-Jul-17 07:47 33.495060 -115.979349 48 8915ft 116kts
04-Jul-17 07:48 33.515548 -115.949385 48 8915ft 116kts
04-Jul-17 07:49 33.536126 -115.919278 48 8915ft 116kts
04-Jul-17 07:50 33.556610 -115.889285 48 8915ft 116kts
04-Jul-17 07:51 33.576232 -115.860544 48 8914ft 115kts
04-Jul-17 07:52 33.593998 -115.833787 55 8650ft 103kts
04-Jul-17 07:53 33.607886 -115.800456 63 7158ft 136kts
04-Jul-17 07:54 33.623061 -115.763940 54 5616ft 137kts
04-Jul-17 07:55 33.648391 -115.726141 43 3027ft 146kts
04-Jul-17 07:56 33.658846 -115.690249 82 2134ft 80kts
04-Jul-17 07:57 33.669902 -115.675029 315 2081ft 78kts
04-Jul-17 07:58 33.666009 -115.703116 259 1693ft 73kts
04-Jul-17 07:59 33.663632 -115.717657 256 1710ft 28kts
04-Jul-17 08:00 33.661811 -115.718613 14 1707ft 0kts
04-Jul-17 08:01 33.661811 -115.718613 14 1707ft 0kts
04-Jul-17 08:02 33.661811 -115.718613 14 1707ft 0kts
04-Jul-17 08:03 33.661811 -115.718613 14 1707ft 0kts
04-Jul-17 08:04 33.661811 -115.718613 14 1707ft 0kts
04-Jul-17 08:05 34.129022 -116.406651 179 3220ft 0kts

Navigation Log

Ident Type
Flight plan parsing failed, navigation log unavailable